Swifton, Arkansas
Current Conditions -  °F | °C
As of 10:27 AM on Thursday 18 Dec 2014 (Local Time) from KM19 Reporting Station
Light Rain Light Rain  
Wind Chill: 34°   Ceiling: 800
Heat Index: 39°   Visibility: 0.5mi
Dew Point: 37°   Wind: 7mph
Humidity: 93%   Direction: 70°ENE
Pressure: 30.28"   Gusts: NA
Location:  35.82°N, 91.13°W
Report Text: KM19 181627Z AUTO 07006KT 1/2SM -RA FG OVC008 04/03 A3028 RMK AO2 CIG 007V011 VIS 1/4V1 3/4 P0000
Loading
Personal Weather Stations






























Interactive Weather Map New forecast layout! Learn more

10-Day Weather Forecast

Advertisements
Track Severe Weather on mobile